Ag Nektarios Aiginas — SX7083 — position and weather

sailwx.info

Track history (hours):
 
Tides and Currents Weather Stations Pressure Air Temp Water Temp Dewpoint Dewpoint Depression Visibility Wind Speed Wind Dir Waves Ship Positions

Ag Nektarios Aiginas

Last reported at 2016-Sep-26 15:33 UTC. Time now 2016-Sep-27 03:39 UTC.
Position N 37°47' E 023°26'.

Length 75 m; draft 2.7 m.

Type: Passenger vessel. MMSI: 237021400.

Date/timePositionNaut miles runAvg speedWind from/ knotsBaromVisibWave heightAir tempDewpointWater temp
2016-Sep-26 15:33N 37°47' E 023°26'11 5.6
2016-Sep-26 13:33N 37°55' E 023°36'11 5.7
2016-Sep-26 11:34N 37°47' E 023°26'14 4.7
2016-Sep-26 08:33N 37°57' E 023°38'16 1.1
2016-Sep-25 17:33N 37°45' E 023°25'1211.8
2016-Sep-25 16:33N 37°54' E 023°35'0 0.2
2016-Sep-25 15:33N 37°54' E 023°35'4 1.4
2016-Sep-25 12:33N 37°57' E 023°38'4 4.1
2016-Sep-25 11:33N 37°54' E 023°35'8 4.0
2016-Sep-25 09:33N 37°48' E 023°28'12 6.2
2016-Sep-25 07:33N 37°57' E 023°39'0 0.0
2016-Sep-24 17:05N 37°57' E 023°39'1 2.5
2016-Sep-24 16:33N 37°56' E 023°37'0 0.0
2016-Sep-24 12:33N 37°56' E 023°37'11 5.6
2016-Sep-24 10:33N 37°48' E 023°28'1212.4
2016-Sep-24 09:33N 37°57' E 023°38'  
2016-Sep-21 16:34N 37°56' E 023°37'2 0.3
2016-Sep-21 09:33N 37°54' E 023°36'3 3.1
2016-Sep-21 08:33N 37°57' E 023°38'2 0.7
2016-Sep-21 05:33N 37°55' E 023°36'13 0.9
2016-Sep-20 14:33N 37°46' E 023°25'1212.5
2016-Sep-20 13:33N 37°55' E 023°36'12 4.1
2016-Sep-20 10:33N 37°46' E 023°25'14 7.2
2016-Sep-20 08:33N 37°56' E 023°37'1312.9
2016-Sep-20 07:33N 37°47' E 023°26'0 0.2
2016-Sep-20 06:33N 37°47' E 023°26'10 0.7
2016-Sep-19 16:33N 37°54' E 023°35'12 5.9
2016-Sep-19 14:33N 37°46' E 023°25'1212.4
2016-Sep-19 13:33N 37°55' E 023°36'2 1.8
2016-Sep-19 12:33N 37°56' E 023°37'1313.0
2016-Sep-19 11:33N 37°47' E 023°26'11 5.6
2016-Sep-19 09:33N 37°55' E 023°36'13 6.3
2016-Sep-19 07:34N 37°45' E 023°25'1 1.1
2016-Sep-19 06:33N 37°46' E 023°25'13 1.1
2016-Sep-18 19:34N 37°55' E 023°36'3 0.7
2016-Sep-18 15:34N 37°53' E 023°34'1110.8
2016-Sep-18 14:33N 37°45' E 023°26'0 0.0
2016-Sep-18 10:33N 37°45' E 023°25'3 3.3
2016-Sep-18 09:33N 37°48' E 023°27'9 0.5
2016-Sep-17 13:33N 37°55' E 023°35'2 2.3
2016-Sep-17 12:34N 37°56' E 023°37'15 7.3
2016-Sep-17 10:33N 37°45' E 023°25'1312.8
2016-Sep-17 09:33N 37°55' E 023°36'2 2.4
2016-Sep-17 08:33N 37°56' E 023°38'1312.6
2016-Sep-17 07:33N 37°47' E 023°27'11 5.6
2016-Sep-17 05:33N 37°56' E 023°37'2 1.7
2016-Sep-17 04:33N 37°57' E 023°39'14 1.1
2016-Sep-16 15:33N 37°47' E 023°26'  
Track history (hours):
 
Tides and Currents Weather Stations Pressure Air Temp Water Temp Dewpoint Dewpoint Depression Visibility Wind Speed Wind Dir Waves Ship Positions

Ag Nektarios Aiginas

Last reported at 2016-Sep-26 15:33 UTC. Time now 2016-Sep-27 03:39 UTC.
Position N 37°47' E 023°26'.

Length 75 m; draft 2.7 m.

Type: Passenger vessel. MMSI: 237021400.

Date/timePositionNaut miles runAvg speedWind from/ knotsBaromVisibWave heightAir tempDewpointWater temp
2016-Sep-26 15:33N 37°47' E 023°26'11 5.6
2016-Sep-26 13:33N 37°55' E 023°36'11 5.7
2016-Sep-26 11:34N 37°47' E 023°26'14 4.7
2016-Sep-26 08:33N 37°57' E 023°38'16 1.1
2016-Sep-25 17:33N 37°45' E 023°25'1211.8
2016-Sep-25 16:33N 37°54' E 023°35'0 0.2
2016-Sep-25 15:33N 37°54' E 023°35'4 1.4
2016-Sep-25 12:33N 37°57' E 023°38'4 4.1
2016-Sep-25 11:33N 37°54' E 023°35'8 4.0
2016-Sep-25 09:33N 37°48' E 023°28'12 6.2
2016-Sep-25 07:33N 37°57' E 023°39'0 0.0
2016-Sep-24 17:05N 37°57' E 023°39'1 2.5
2016-Sep-24 16:33N 37°56' E 023°37'0 0.0
2016-Sep-24 12:33N 37°56' E 023°37'11 5.6
2016-Sep-24 10:33N 37°48' E 023°28'1212.4
2016-Sep-24 09:33N 37°57' E 023°38'  
2016-Sep-21 16:34N 37°56' E 023°37'2 0.3
2016-Sep-21 09:33N 37°54' E 023°36'3 3.1
2016-Sep-21 08:33N 37°57' E 023°38'2 0.7
2016-Sep-21 05:33N 37°55' E 023°36'13 0.9
2016-Sep-20 14:33N 37°46' E 023°25'1212.5
2016-Sep-20 13:33N 37°55' E 023°36'12 4.1
2016-Sep-20 10:33N 37°46' E 023°25'14 7.2
2016-Sep-20 08:33N 37°56' E 023°37'1312.9
2016-Sep-20 07:33N 37°47' E 023°26'0 0.2
2016-Sep-20 06:33N 37°47' E 023°26'10 0.7
2016-Sep-19 16:33N 37°54' E 023°35'12 5.9
2016-Sep-19 14:33N 37°46' E 023°25'1212.4
2016-Sep-19 13:33N 37°55' E 023°36'2 1.8
2016-Sep-19 12:33N 37°56' E 023°37'1313.0
2016-Sep-19 11:33N 37°47' E 023°26'11 5.6
2016-Sep-19 09:33N 37°55' E 023°36'13 6.3
2016-Sep-19 07:34N 37°45' E 023°25'1 1.1
2016-Sep-19 06:33N 37°46' E 023°25'13 1.1
2016-Sep-18 19:34N 37°55' E 023°36'3 0.7
2016-Sep-18 15:34N 37°53' E 023°34'1110.8
2016-Sep-18 14:33N 37°45' E 023°26'0 0.0
2016-Sep-18 10:33N 37°45' E 023°25'3 3.3
2016-Sep-18 09:33N 37°48' E 023°27'9 0.5
2016-Sep-17 13:33N 37°55' E 023°35'2 2.3
2016-Sep-17 12:34N 37°56' E 023°37'15 7.3
2016-Sep-17 10:33N 37°45' E 023°25'1312.8
2016-Sep-17 09:33N 37°55' E 023°36'2 2.4
2016-Sep-17 08:33N 37°56' E 023°38'1312.6
2016-Sep-17 07:33N 37°47' E 023°27'11 5.6
2016-Sep-17 05:33N 37°56' E 023°37'2 1.7
2016-Sep-17 04:33N 37°57' E 023°39'14 1.1
2016-Sep-16 15:33N 37°47' E 023°26'  

Dump ship's entire track history